Time;durP1;ratioP1;P1;durP2;ratioP2;P2;SDS_P1;SDS_P2;PMS_P1;PMS_P2;Temp;Humidity;BMP_temperature;BMP_pressure;BME280_temperature;BME280_humidity;BME280_pressure;Samples;Min_cycle;Max_cycle;Signal;HPM_P1;HPM_P2
2022/06/12 06:25:36;;;;;;;;;;;;;;;23.82;52.95;97504.50;4249192;27;10289;-66
2022/06/12 06:27:39;;;;;;;;;;;;;;;24.11;52.60;97496.81;4244380;27;5797;-66
2022/06/12 06:29:42;;;;;;;;;;;;;;;24.34;52.18;97488.31;4227945;27;5790;-68
2022/06/12 06:31:45;;;;;;;;;;;;;;;24.50;51.50;97485.66;4227781;28;5798;-67
2022/06/12 06:33:48;;;;;;;;;;;;;;;24.55;50.93;97483.78;4228679;27;5924;-67
2022/06/12 06:35:51;;;;;;;;;;;;;;;24.59;51.06;97484.09;4224488;27;5837;-67
2022/06/12 06:37:55;;;;;;;;;;;;;;;24.71;50.73;97481.94;4226506;27;5774;-68
2022/06/12 06:39:57;;;;;;;;;;;;;;;24.81;50.31;97483.88;4228305;27;5782;-67
2022/06/12 06:42:02;;;;;;;;;;;;;;;24.89;49.95;97488.72;4227205;27;5773;-67
2022/06/12 06:46:25;;;;;;;;;;;;;;;25.03;49.51;97494.44;4227616;27;5859;-68
2022/06/12 06:48:29;;;;;;;;;;;;;;;25.06;49.21;97489.34;4227171;27;5807;-68
2022/06/12 06:50:33;;;;;;;;;;;;;;;25.12;49.26;97503.66;4228955;27;5778;-71
2022/06/12 06:52:36;;;;;;;;;;;;;;;25.20;48.78;97495.03;4227742;27;5786;-71
2022/06/12 06:54:40;;;;;;;;;;;;;;;25.25;48.45;97492.31;4229098;27;7730;-71
2022/06/12 06:56:43;;;;;;;;;;;;;;;25.29;48.24;97498.00;4224405;27;5765;-71
2022/06/12 06:58:48;;;;;;;;;;;;;;;25.31;48.28;97499.34;4224999;28;5781;-71
2022/06/12 07:00:52;;;;;;;;;;;;;;;25.38;48.51;97501.81;4234563;27;5845;-71
2022/06/12 07:02:55;;;;;;;;;;;;;;;25.40;48.32;97499.63;4224671;27;5758;-71
2022/06/12 07:04:59;;;;;;;;;;;;;;;25.37;48.22;97506.41;4226992;27;6208;-71
2022/06/12 07:07:02;;;;;;;;;;;;;;;25.34;48.07;97498.00;4227372;27;5860;-71
2022/06/12 07:09:05;;;;;;;;;;;;;;;25.31;47.85;97502.06;4228845;27;5750;-71
2022/06/12 07:11:08;;;;;;;;;;;;;;;25.29;47.65;97504.22;4221229;27;6572;-71
2022/06/12 07:13:13;;;;;;;;;;;;;;;25.24;48.04;97504.22;4238326;27;5937;-71
2022/06/12 07:15:17;;;;;;;;;;;;;;;25.18;48.10;97508.00;4218948;27;5762;-71
2022/06/12 07:17:20;;;;;;;;;;;;;;;25.12;47.92;97503.66;4223538;27;5833;-71
2022/06/12 07:19:23;;;;;;;;;;;;;;;25.08;48.03;97502.59;4244721;27;5301;-71
2022/06/12 07:21:26;;;;;;;;;;;;;;;25.05;48.07;97500.44;4227149;27;5790;-71
2022/06/12 07:23:30;;;;;;;;;;;;;;;24.98;47.82;97504.16;4227624;27;5858;-71
2022/06/12 07:25:37;;;;;;;;;;;;;;;24.93;47.83;97501.47;4222566;27;5771;-71
2022/06/12 07:27:41;;;;;;;;;;;;;;;24.92;47.59;97510.66;4211782;28;5908;-70
2022/06/12 07:29:44;;;;;;;;;;;;;;;24.91;47.86;97510.91;4208822;28;5762;-70
2022/06/12 07:31:49;;;;;;;;;;;;;;;24.87;47.71;97516.03;4219811;28;5754;-70
2022/06/12 07:33:53;;;;;;;;;;;;;;;24.84;47.62;97513.06;4215287;28;5781;-71
2022/06/12 07:35:59;;;;;;;;;;;;;;;24.78;48.17;97500.59;4217355;28;5762;-71
2022/06/12 07:38:03;;;;;;;;;;;;;;;24.75;47.90;97504.66;4212344;28;5687;-71
2022/06/12 07:40:09;;;;;;;;;;;;;;;24.71;48.04;97500.88;4213410;28;5766;-71
2022/06/12 07:42:12;;;;;;;;;;;;;;;24.64;47.96;97498.41;4211525;28;5789;-71
2022/06/12 07:44:19;;;;;;;;;;;;;;;24.61;48.33;97492.72;4216247;28;6045;-72
2022/06/12 07:46:22;;;;;;;;;;;;;;;24.59;48.15;97494.91;4215039;28;5761;-71
2022/06/12 07:48:33;;;;;;;;;;;;;;;24.58;48.44;97495.97;4214713;28;5920;-71
2022/06/12 07:50:38;;;;;;;;;;;;;;;24.56;48.18;97498.91;4218084;28;5790;-71
2022/06/12 07:52:41;;;;;;;;;;;;;;;24.54;48.74;97497.56;4218588;27;5771;-72
2022/06/12 07:54:45;;;;;;;;;;;;;;;24.51;48.59;97503.50;4215788;28;5798;-66
2022/06/12 07:56:48;;;;;;;;;;;;;;;24.50;48.32;97501.88;4213322;28;5762;-66
2022/06/12 07:58:51;;;;;;;;;;;;;;;24.48;48.26;97499.47;4215802;28;5599;-66
2022/06/12 08:00:56;;;;;;;;;;;;;;;24.50;48.81;97501.88;4212860;28;5757;-66
2022/06/12 08:02:59;;;;;;;;;;;;;;;24.51;48.51;97498.09;4216101;28;5882;-66
2022/06/12 08:05:04;;;;;;;;;;;;;;;24.49;48.77;97501.06;4216840;28;5778;-66
2022/06/12 08:07:07;;;;;;;;;;;;;;;24.45;48.53;97491.84;4225093;28;5729;-66
2022/06/12 08:09:11;;;;;;;;;;;;;;;24.42;48.52;97495.09;4215303;28;5909;-67
2022/06/12 08:11:15;;;;;;;;;;;;;;;24.39;48.22;97490.22;4216349;28;5778;-67
2022/06/12 08:13:18;;;;;;;;;;;;;;;24.39;48.43;97490.22;4226710;28;5666;-67
2022/06/12 08:15:28;;;;;;;;;;;;;;;24.38;48.41;97494.81;4214367;28;5938;-67
2022/06/12 08:17:31;;;;;;;;;;;;;;;24.36;48.72;97491.56;4217095;28;5813;-67
2022/06/12 08:21:57;;;;;;;;;;;;;;;24.33;48.11;97489.38;4218125;28;6490;-67
2022/06/12 08:24:01;;;;;;;;;;;;;;;24.33;48.53;97494.78;4207916;28;5742;-67
2022/06/12 08:26:07;;;;;;;;;;;;;;;24.34;48.24;97488.31;4211355;28;5767;-67
2022/06/12 08:28:10;;;;;;;;;;;;;;;24.33;48.06;97483.97;4221379;28;5748;-66
2022/06/12 08:30:13;;;;;;;;;;;;;;;24.33;48.37;97486.69;4215075;28;5766;-67
2022/06/12 08:32:21;;;;;;;;;;;;;;;24.33;48.00;97481.28;4205872;28;5782;-67
2022/06/12 08:34:27;;;;;;;;;;;;;;;24.32;48.08;97479.66;4220486;28;5773;-67
2022/06/12 08:36:31;;;;;;;;;;;;;;;24.28;48.27;97475.84;4222817;28;5773;-67
2022/06/12 08:38:35;;;;;;;;;;;;;;;24.27;47.76;97476.09;4218879;28;6433;-66
2022/06/12 08:40:45;;;;;;;;;;;;;;;24.27;48.13;97476.09;4224155;28;5769;-72
2022/06/12 08:42:57;;;;;;;;;;;;;;;24.23;47.89;97480.38;4220738;28;5741;-71
2022/06/12 08:45:06;;;;;;;;;;;;;;;24.22;47.44;97474.16;4230225;27;5733;-71
2022/06/12 08:47:21;;;;;;;;;;;;;;;24.22;47.82;97473.34;4205423;28;5798;-70
2022/06/12 08:49:31;;;;;;;;;;;;;;;24.21;47.61;97472.56;4215031;28;5683;-71
2022/06/12 08:51:39;;;;;;;;;;;;;;;24.24;47.19;97477.44;4208096;28;5956;-65
2022/06/12 08:53:48;;;;;;;;;;;;;;;24.23;47.32;97475.78;4204488;28;5746;-71
2022/06/12 08:55:56;;;;;;;;;;;;;;;24.25;46.84;97484.47;4211806;28;5790;-72
2022/06/12 08:58:08;;;;;;;;;;;;;;;24.26;47.04;97471.78;4215144;28;5814;-72
2022/06/12 09:00:15;;;;;;;;;;;;;;;24.25;46.80;97476.38;4216658;28;5762;-73
2022/06/12 09:02:22;;;;;;;;;;;;;;;24.27;46.49;97476.91;4199167;28;5901;-63
2022/06/12 09:04:25;;;;;;;;;;;;;;;24.27;46.45;97482.31;4216700;28;5914;-63
2022/06/12 09:06:40;;;;;;;;;;;;;;;24.26;46.63;97475.28;4211961;28;7815;-63
2022/06/12 09:08:49;;;;;;;;;;;;;;;24.30;46.49;97476.41;4216806;28;5820;-62
2022/06/12 09:11:01;;;;;;;;;;;;;;;24.27;46.20;97471.50;4213602;28;5792;-62
2022/06/12 09:13:19;;;;;;;;;;;;;;;24.26;46.14;97466.38;4220307;28;5744;-64
2022/06/12 09:15:37;;;;;;;;;;;;;;;24.25;45.85;97462.84;4213926;28;5780;-64
2022/06/12 09:17:48;;;;;;;;;;;;;;;24.27;45.77;97468.00;4211342;28;5822;-66
2022/06/12 09:19:58;;;;;;;;;;;;;;;24.26;46.23;97461.78;4211500;28;5922;-66
2022/06/12 09:22:09;;;;;;;;;;;;;;;24.27;46.08;97462.59;4213570;28;5778;-63
2022/06/12 09:24:25;;;;;;;;;;;;;;;24.28;45.92;97456.91;4218260;28;5933;-64
2022/06/12 09:26:37;;;;;;;;;;;;;;;24.29;46.17;97463.13;4216527;28;6561;-63
2022/06/12 09:28:47;;;;;;;;;;;;;;;24.31;45.59;97456.41;4214716;28;5770;-62
2022/06/12 09:30:57;;;;;;;;;;;;;;;24.34;45.67;97446.97;4211218;28;5794;-63
2022/06/12 09:33:08;;;;;;;;;;;;;;;24.37;45.96;97449.16;4207690;28;5774;-65
2022/06/12 09:35:24;;;;;;;;;;;;;;;24.39;45.87;97450.50;4212514;28;5910;-64
2022/06/12 09:40:05;;;;;;;;;;;;;;;24.45;45.89;97445.91;4211758;28;5774;-66
2022/06/12 09:42:18;;;;;;;;;;;;;;;24.47;45.66;97432.97;4212919;28;5834;-66
2022/06/12 09:44:36;;;;;;;;;;;;;;;24.51;45.91;97433.25;4209501;28;5798;-64
2022/06/12 09:46:47;;;;;;;;;;;;;;;24.54;45.91;97432.69;4214118;28;5770;-64
2022/06/12 09:48:58;;;;;;;;;;;;;;;24.53;45.79;97440.00;4212702;28;5834;-65
2022/06/12 09:51:13;;;;;;;;;;;;;;;24.55;45.58;97435.13;4218662;27;6578;-64
2022/06/12 09:53:46;;;;;;;;;;;;;;;24.57;45.58;97424.03;4214054;28;5806;-65
2022/06/12 09:55:56;;;;;;;;;;;;;;;24.59;45.26;97416.50;4210830;28;6587;-63
2022/06/12 09:58:10;;;;;;;;;;;;;;;24.61;45.16;97417.03;4213156;28;5670;-64
2022/06/12 10:00:18;;;;;;;;;;;;;;;24.65;45.10;97410.00;4210584;28;5998;-64
2022/06/12 10:02:28;;;;;;;;;;;;;;;24.67;44.90;97410.56;4220748;28;5116;-63
2022/06/12 10:04:39;;;;;;;;;;;;;;;24.68;44.74;97406.75;4211942;28;5773;-66
2022/06/12 10:06:44;;;;;;;;;;;;;;;24.73;44.80;97409.50;4214522;28;5781;-63
2022/06/12 10:08:53;;;;;;;;;;;;;;;24.77;45.06;97401.66;4212867;28;5755;-65
2022/06/12 10:11:00;;;;;;;;;;;;;;;24.76;44.85;97403.53;4228096;28;5773;-67
2022/06/12 10:13:09;;;;;;;;;;;;;;;24.75;44.97;97403.81;4214711;27;5867;-67
2022/06/12 10:15:19;;;;;;;;;;;;;;;24.76;44.95;97400.03;4212191;28;5834;-62
2022/06/12 10:17:30;;;;;;;;;;;;;;;24.76;44.49;97408.13;4209274;28;5785;-62
2022/06/12 10:19:37;;;;;;;;;;;;;;;24.76;44.71;97403.53;4211078;28;5818;-62
2022/06/12 10:21:44;;;;;;;;;;;;;;;24.76;44.88;97397.31;4212010;28;5805;-62
2022/06/12 10:23:47;;;;;;;;;;;;;;;24.77;44.88;97399.75;4213913;28;5761;-62
2022/06/12 10:25:52;;;;;;;;;;;;;;;24.77;44.23;97398.94;4224834;27;5939;-62
2022/06/12 10:28:01;;;;;;;;;;;;;;;24.77;44.35;97402.44;4214267;28;5762;-62
2022/06/12 10:30:05;;;;;;;;;;;;;;;24.78;44.70;97397.84;4214360;28;5878;-63
2022/06/12 10:32:13;;;;;;;;;;;;;;;24.80;44.34;97399.19;4212663;28;5788;-62
2022/06/12 10:34:21;;;;;;;;;;;;;;;24.81;44.58;97400.84;4217879;28;5772;-62
2022/06/12 10:36:27;;;;;;;;;;;;;;;24.80;44.38;97396.50;4217764;28;5774;-62
2022/06/12 10:38:32;;;;;;;;;;;;;;;24.81;44.37;97395.44;4229439;28;5104;-62
2022/06/12 10:40:35;;;;;;;;;;;;;;;24.82;43.97;97383.53;4215094;27;5766;-62
2022/06/12 10:42:45;;;;;;;;;;;;;;;24.84;44.17;97386.78;4217242;28;5794;-62
2022/06/12 10:44:57;;;;;;;;;;;;;;;24.84;44.15;97381.38;4206981;28;7227;-62
2022/06/12 10:47:20;;;;;;;;;;;;;;;24.85;43.73;97385.69;4214164;28;5766;-63
2022/06/12 10:49:24;;;;;;;;;;;;;;;24.87;44.28;97383.53;4208038;28;5786;-64
2022/06/12 10:51:34;;;;;;;;;;;;;;;24.88;43.97;97387.84;4214157;28;5766;-62
2022/06/12 10:53:37;;;;;;;;;;;;;;;24.93;43.77;97379.75;4212508;28;5128;-63
2022/06/12 10:55:52;;;;;;;;;;;;;;;24.98;43.82;97379.75;4212377;28;5865;-63
2022/06/12 10:58:07;;;;;;;;;;;;;;;25.04;43.23;97372.50;4212067;28;5667;-63
2022/06/12 11:00:16;;;;;;;;;;;;;;;25.08;43.32;97378.16;4214060;28;5767;-63
2022/06/12 11:02:42;;;;;;;;;;;;;;;25.11;43.49;97372.19;4217035;28;5778;-63
2022/06/12 11:04:57;;;;;;;;;;;;;;;25.15;42.97;97365.97;4214799;28;5774;-62
2022/06/12 11:07:12;;;;;;;;;;;;;;;25.17;43.01;97365.72;4217295;28;5818;-62
2022/06/12 11:09:28;;;;;;;;;;;;;;;25.17;42.85;97360.28;4219066;28;5742;-62
2022/06/12 11:11:41;;;;;;;;;;;;;;;25.17;42.86;97357.59;4220070;28;6193;-62
2022/06/12 11:13:59;;;;;;;;;;;;;;;25.20;42.92;97352.44;4219882;28;5743;-62
2022/06/12 11:16:18;;;;;;;;;;;;;;;25.25;43.12;97362.44;4226764;28;5650;-62
2022/06/12 11:18:34;;;;;;;;;;;;;;;25.30;42.93;97351.59;4236670;27;5744;-62
2022/06/12 11:20:47;;;;;;;;;;;;;;;25.34;43.07;97349.97;4221105;27;5745;-62
2022/06/12 11:23:04;;;;;;;;;;;;;;;25.36;43.10;97350.50;4219717;28;5666;-62
2022/06/12 11:25:40;;;;;;;;;;;;;;;25.36;43.10;97347.78;4202435;28;5704;-62
2022/06/12 11:27:57;;;;;;;;;;;;;;;25.36;43.02;97352.38;4202606;28;5700;-62
2022/06/12 11:30:15;;;;;;;;;;;;;;;25.36;43.01;97345.09;4219205;28;5073;-62
2022/06/12 11:32:32;;;;;;;;;;;;;;;25.37;42.95;97338.63;4220954;28;5658;-62
2022/06/12 11:34:48;;;;;;;;;;;;;;;25.38;42.80;97342.94;4235248;27;5734;-62
2022/06/12 11:37:08;;;;;;;;;;;;;;;25.40;43.27;97332.66;4216759;28;5802;-62
2022/06/12 11:39:40;;;;;;;;;;;;;;;25.43;42.72;97337.50;4219345;28;5743;-62
2022/06/12 11:41:56;;;;;;;;;;;;;;;25.44;42.41;97327.47;4219652;28;5837;-62
2022/06/12 11:44:12;;;;;;;;;;;;;;;25.43;42.31;97315.84;4219327;28;5754;-62
2022/06/12 11:46:28;;;;;;;;;;;;;;;25.51;42.61;97325.31;4219595;28;5750;-62
2022/06/12 11:48:49;;;;;;;;;;;;;;;25.51;42.33;97322.59;4234927;27;5666;-62
2022/06/12 11:50:59;;;;;;;;;;;;;;;25.50;42.50;97316.38;4235711;28;5661;-62
2022/06/12 11:53:11;;;;;;;;;;;;;;;25.53;42.23;97309.59;4235423;27;5650;-62
2022/06/12 11:55:24;;;;;;;;;;;;;;;25.57;42.36;97307.13;4235358;27;5914;-62
2022/06/12 11:57:33;;;;;;;;;;;;;;;25.63;42.56;97308.75;4233961;28;7714;-62
2022/06/12 11:59:48;;;;;;;;;;;;;;;25.65;42.21;97301.16;4235305;28;5765;-62
2022/06/12 12:01:59;;;;;;;;;;;;;;;25.67;42.51;97299.78;4235283;27;5657;-62
2022/06/12 12:04:34;;;;;;;;;;;;;;;25.68;41.89;97306.81;4209145;28;5770;-63
2022/06/12 12:06:55;;;;;;;;;;;;;;;25.70;42.25;97301.16;4194554;28;5773;-62
2022/06/12 12:09:09;;;;;;;;;;;;;;;25.70;42.24;97301.16;4216770;28;5695;-64
2022/06/12 12:11:17;;;;;;;;;;;;;;;25.70;41.83;97306.56;4220481;28;6453;-63
2022/06/12 12:13:27;;;;;;;;;;;;;;;25.69;42.22;97302.19;4213422;28;5777;-63
2022/06/12 12:15:34;;;;;;;;;;;;;;;25.66;42.27;97300.06;4225919;27;5876;-64
2022/06/12 12:17:42;;;;;;;;;;;;;;;25.69;42.22;97291.38;4215062;28;5683;-63
2022/06/12 12:19:48;;;;;;;;;;;;;;;25.69;42.21;97285.97;4224977;28;5777;-63
2022/06/12 12:21:55;;;;;;;;;;;;;;;25.70;41.83;97293.03;4216533;28;7695;-62
2022/06/12 12:24:00;;;;;;;;;;;;;;;25.70;41.70;97287.59;4222736;28;5831;-63
2022/06/12 12:26:08;;;;;;;;;;;;;;;25.74;41.88;97284.09;4231035;28;5749;-63
2022/06/12 12:28:18;;;;;;;;;;;;;;;25.80;41.53;97282.94;4227045;28;5786;-63
2022/06/12 12:30:25;;;;;;;;;;;;;;;25.82;41.38;97279.97;4224647;28;5756;-63
2022/06/12 12:32:30;;;;;;;;;;;;;;;25.81;41.64;97281.06;4227973;27;5778;-63
2022/06/12 12:34:34;;;;;;;;;;;;;;;25.79;41.29;97280.53;4216501;27;5820;-63
2022/06/12 12:41:49;;;;;;;;;;;;;;;25.81;41.10;97275.63;4153307;28;5869;-63
2022/06/12 12:43:54;;;;;;;;;;;;;;;25.79;41.38;97262.38;4147357;28;5898;-63
2022/06/12 12:46:03;;;;;;;;;;;;;;;25.81;41.17;97264.81;4146328;28;5876;-63
2022/06/12 12:48:10;;;;;;;;;;;;;;;25.87;41.17;97254.78;4147296;28;5906;-63
2022/06/12 12:50:14;;;;;;;;;;;;;;;25.89;40.49;97258.00;4135465;28;5871;-63
2022/06/12 12:52:20;;;;;;;;;;;;;;;25.87;40.31;97252.88;4159014;28;5834;-63
2022/06/12 12:54:24;;;;;;;;;;;;;;;25.90;40.28;97241.47;4146471;28;5855;-63
2022/06/12 12:56:31;;;;;;;;;;;;;;;25.89;40.43;97253.38;4151350;28;5833;-63
2022/06/12 12:58:39;;;;;;;;;;;;;;;25.90;40.29;97246.88;4156209;28;5833;-63
2022/06/12 13:00:44;;;;;;;;;;;;;;;25.92;40.33;97249.31;4147149;28;5887;-63
2022/06/12 13:02:49;;;;;;;;;;;;;;;25.96;39.83;97244.97;4147175;28;7263;-63
2022/06/12 13:04:56;;;;;;;;;;;;;;;25.98;39.69;97240.06;4147298;28;6635;-63
2022/06/12 13:07:16;;;;;;;;;;;;;;;26.01;39.74;97236.78;4140464;28;5842;-63
2022/06/12 13:09:35;;;;;;;;;;;;;;;25.99;39.64;97231.66;4153819;28;5854;-63
2022/06/12 13:11:48;;;;;;;;;;;;;;;26.02;39.71;97241.13;4211940;28;5775;-63
2022/06/12 13:14:03;;;;;;;;;;;;;;;26.08;39.27;97238.09;4217336;28;5825;-63
2022/06/12 13:16:16;;;;;;;;;;;;;;;26.08;39.03;97237.28;4224644;28;5784;-63
2022/06/12 13:18:32;;;;;;;;;;;;;;;26.10;38.94;97233.22;4210898;28;5873;-63
2022/06/12 13:20:51;;;;;;;;;;;;;;;26.10;38.86;97235.91;4212320;28;5733;-63
2022/06/12 13:23:06;;;;;;;;;;;;;;;26.11;38.66;97223.19;4212981;28;5725;-63
2022/06/12 13:25:16;;;;;;;;;;;;;;;26.18;38.72;97225.56;4215712;28;5690;-63
2022/06/12 13:27:22;;;;;;;;;;;;;;;26.18;38.35;97226.38;4223583;27;5680;-63
2022/06/12 13:29:26;;;;;;;;;;;;;;;26.17;37.99;97213.13;4217128;28;7105;-63
2022/06/12 13:31:33;;;;;;;;;;;;;;;26.20;38.17;97217.97;4215515;28;5786;-63
2022/06/12 13:33:37;;;;;;;;;;;;;;;26.27;37.81;97213.00;4216416;28;5706;-63
2022/06/12 13:35:44;;;;;;;;;;;;;;;26.28;37.65;97206.53;4217880;28;5683;-63
2022/06/12 13:37:50;;;;;;;;;;;;;;;26.32;37.66;97215.69;4216259;28;5779;-63
2022/06/12 13:39:53;;;;;;;;;;;;;;;26.37;37.59;97210.25;4217645;28;5683;-63
2022/06/12 13:41:59;;;;;;;;;;;;;;;26.39;37.50;97211.63;4216102;28;5667;-60
2022/06/12 13:44:21;;;;;;;;;;;;;;;26.44;37.48;97210.75;4217925;28;5671;-61
2022/06/12 13:46:27;;;;;;;;;;;;;;;26.47;37.08;97202.03;4217618;28;5679;-63
2022/06/12 13:48:33;;;;;;;;;;;;;;;26.53;37.19;97214.47;4209665;28;5838;-63
2022/06/12 13:50:44;;;;;;;;;;;;;;;26.53;36.97;97208.22;4223873;28;5651;-63
2022/06/12 13:52:55;;;;;;;;;;;;;;;26.50;37.02;97204.16;4211350;28;5791;-63
2022/06/12 13:54:59;;;;;;;;;;;;;;;26.53;36.73;97208.22;4220844;28;5896;-63
2022/06/12 13:57:13;;;;;;;;;;;;;;;26.53;36.83;97203.63;4226876;27;5745;-63
2022/06/12 13:59:20;;;;;;;;;;;;;;;26.47;36.65;97199.31;4218119;27;5766;-63
2022/06/12 14:01:26;;;;;;;;;;;;;;;26.44;36.78;97193.66;4222290;28;5762;-63
2022/06/12 14:03:32;;;;;;;;;;;;;;;26.45;36.51;97193.38;4211228;28;5770;-63
2022/06/12 14:05:41;;;;;;;;;;;;;;;26.44;36.74;97194.47;4219812;28;5872;-63
2022/06/12 14:07:46;;;;;;;;;;;;;;;26.47;36.29;97191.19;4214999;28;5798;-63
2022/06/12 14:09:53;;;;;;;;;;;;;;;26.46;36.55;97197.72;4217075;28;5771;-63
2022/06/12 14:11:57;;;;;;;;;;;;;;;26.45;36.36;97190.66;4215829;28;5762;-63
2022/06/12 14:14:02;;;;;;;;;;;;;;;26.48;36.65;97190.09;4215684;28;5782;-63
2022/06/12 14:16:11;;;;;;;;;;;;;;;26.54;36.69;97177.31;4215425;28;5861;-63
2022/06/12 14:18:25;;;;;;;;;;;;;;;26.53;37.13;97176.50;4217629;28;5668;-61
2022/06/12 14:20:31;;;;;;;;;;;;;;;26.56;37.17;97186.78;4217636;28;5746;-61
2022/06/12 14:22:43;;;;;;;;;;;;;;;26.57;36.92;97176.72;4217595;28;5671;-64
2022/06/12 14:24:57;;;;;;;;;;;;;;;26.61;36.90;97173.16;4217151;28;5711;-62
2022/06/12 14:27:00;;;;;;;;;;;;;;;26.68;36.67;97181.75;4217772;28;5758;-61
2022/06/12 14:29:33;;;;;;;;;;;;;;;26.69;36.95;97171.72;4217400;28;5670;-62
2022/06/12 14:31:35;;;;;;;;;;;;;;;26.73;36.61;97169.25;4217297;28;5664;-62
2022/06/12 14:33:40;;;;;;;;;;;;;;;26.79;36.68;97170.81;4217588;28;5773;-62
2022/06/12 14:35:44;;;;;;;;;;;;;;;26.84;36.95;97170.75;4218479;28;5664;-61
2022/06/12 14:37:48;;;;;;;;;;;;;;;26.87;36.88;97171.00;4221028;28;5080;-62
2022/06/12 14:39:51;;;;;;;;;;;;;;;26.90;36.69;97158.75;4219378;28;5675;-62
2022/06/12 14:41:56;;;;;;;;;;;;;;;26.94;36.83;97160.59;4220745;28;5667;-62
2022/06/12 14:43:59;;;;;;;;;;;;;;;27.02;36.74;97156.47;4220950;28;5738;-61
2022/06/12 14:46:11;;;;;;;;;;;;;;;27.06;36.62;97157.50;4220425;28;5679;-61
2022/06/12 14:48:17;;;;;;;;;;;;;;;27.13;36.73;97163.38;4217095;28;5840;-62
2022/06/12 14:50:20;;;;;;;;;;;;;;;27.09;36.48;97159.66;4218878;28;5775;-62
2022/06/12 14:52:24;;;;;;;;;;;;;;;27.08;36.51;97157.22;4219992;28;6361;-62
2022/06/12 14:54:26;;;;;;;;;;;;;;;27.10;36.55;97155.84;4219117;28;5679;-62
2022/06/12 14:56:31;;;;;;;;;;;;;;;27.18;36.49;97152.47;4220907;28;5798;-62
2022/06/12 14:58:37;;;;;;;;;;;;;;;27.17;36.51;97150.84;4213877;28;5748;-62
2022/06/12 15:00:41;;;;;;;;;;;;;;;27.20;36.62;97147.56;4203706;28;5839;-62
2022/06/12 15:02:45;;;;;;;;;;;;;;;27.17;36.25;97147.31;4212201;28;5668;-62
2022/06/12 15:04:49;;;;;;;;;;;;;;;27.12;36.40;97145.50;4220416;28;5679;-62
2022/06/12 15:06:52;;;;;;;;;;;;;;;27.11;36.39;97154.72;4220523;28;5675;-62
2022/06/12 15:08:55;;;;;;;;;;;;;;;27.11;36.33;97143.88;4220080;28;5671;-62
2022/06/12 15:10:59;;;;;;;;;;;;;;;27.08;36.53;97143.66;4220261;28;5671;-62
2022/06/12 15:13:02;;;;;;;;;;;;;;;27.07;36.43;97136.59;4219675;28;5679;-62
2022/06/12 15:15:24;;;;;;;;;;;;;;;27.02;36.46;97132.06;4213920;28;5088;-62
2022/06/12 15:17:27;;;;;;;;;;;;;;;27.04;36.14;97127.13;4212247;28;5793;-62
2022/06/12 15:19:31;;;;;;;;;;;;;;;27.09;36.12;97124.38;4214081;28;5747;-63
2022/06/12 15:21:37;;;;;;;;;;;;;;;27.12;35.82;97122.97;4214517;28;5659;-62
2022/06/12 15:23:40;;;;;;;;;;;;;;;27.15;35.96;97116.97;4211748;28;5783;-62
2022/06/12 15:30:34;;;;;;;;;;;;;;;27.19;35.78;97110.66;4165305;28;5851;-62
2022/06/12 15:32:37;;;;;;;;;;;;;;;27.21;35.51;97118.53;4165637;28;5832;-62
2022/06/12 15:34:42;;;;;;;;;;;;;;;27.17;35.56;97112.03;4164516;28;5852;-62
2022/06/12 15:36:45;;;;;;;;;;;;;;;27.11;35.72;97114.03;4150810;28;5906;-62
2022/06/12 15:38:48;;;;;;;;;;;;;;;27.05;35.92;97112.47;4164569;28;7385;-64
2022/06/12 15:40:51;;;;;;;;;;;;;;;27.02;35.83;97121.19;4166295;28;5855;-64
2022/06/12 15:42:54;;;;;;;;;;;;;;;27.00;35.84;97115.22;4167175;28;5822;-64
2022/06/12 15:44:57;;;;;;;;;;;;;;;26.99;35.96;97116.31;4178558;28;5899;-64
2022/06/12 15:47:00;;;;;;;;;;;;;;;26.97;35.71;97126.66;4161825;28;5854;-65
2022/06/12 15:49:03;;;;;;;;;;;;;;;26.98;35.81;97120.16;4165746;28;5868;-64
2022/06/12 15:51:13;;;;;;;;;;;;;;;27.02;35.80;97112.25;4167333;28;5839;-65
2022/06/12 15:53:17;;;;;;;;;;;;;;;27.03;35.99;97111.97;4166197;28;6568;-65
2022/06/12 15:55:20;;;;;;;;;;;;;;;27.04;35.71;97108.13;4161347;28;5941;-64
2022/06/12 15:57:22;;;;;;;;;;;;;;;27.08;36.05;97111.09;4160865;28;6258;-65
2022/06/12 15:59:26;;;;;;;;;;;;;;;27.10;36.10;97109.69;4166888;28;5851;-64
2022/06/12 16:01:30;;;;;;;;;;;;;;;27.15;36.00;97112.34;4163642;28;5966;-64
2022/06/12 16:03:33;;;;;;;;;;;;;;;27.23;35.91;97110.88;4166355;28;5910;-65
2022/06/12 16:05:36;;;;;;;;;;;;;;;27.25;35.84;97117.63;4165465;28;5887;-64
2022/06/12 16:07:41;;;;;;;;;;;;;;;27.23;36.06;97111.69;4223421;28;5841;-64
2022/06/12 16:09:51;;;;;;;;;;;;;;;27.22;36.00;97106.56;4214321;28;5773;-66
2022/06/12 16:11:54;;;;;;;;;;;;;;;27.19;35.97;97115.28;4215909;28;5667;-66
2022/06/12 16:13:57;;;;;;;;;;;;;;;27.18;36.25;97110.94;4217000;28;5874;-66
2022/06/12 16:16:01;;;;;;;;;;;;;;;27.17;36.26;97107.41;4212730;28;5743;-66
2022/06/12 16:18:05;;;;;;;;;;;;;;;27.19;36.31;97101.72;4219813;28;5759;-65
2022/06/12 16:20:10;;;;;;;;;;;;;;;27.17;36.07;97102.00;4212437;28;6471;-66
2022/06/12 16:22:13;;;;;;;;;;;;;;;27.15;36.32;97106.09;4229445;27;5643;-66
2022/06/12 16:24:17;;;;;;;;;;;;;;;27.10;36.25;97101.56;4232662;27;5818;-66
2022/06/12 16:26:20;;;;;;;;;;;;;;;27.09;36.64;97097.25;4217100;28;5823;-66
2022/06/12 16:28:24;;;;;;;;;;;;;;;27.07;36.13;97099.44;4221238;28;5734;-66
2022/06/12 16:30:27;;;;;;;;;;;;;;;27.04;36.02;97102.72;4215637;28;5821;-66
2022/06/12 16:32:30;;;;;;;;;;;;;;;27.02;36.10;97096.78;4217380;28;5671;-65
2022/06/12 16:34:33;;;;;;;;;;;;;;;27.02;36.22;97102.19;4218522;28;5774;-65
2022/06/12 16:36:37;;;;;;;;;;;;;;;27.04;36.24;97100.00;4218181;28;6200;-66
2022/06/12 16:38:40;;;;;;;;;;;;;;;27.03;35.95;97109.25;4215844;28;5683;-66
2022/06/12 16:40:45;;;;;;;;;;;;;;;27.01;36.31;97105.19;4214654;28;5113;-66
2022/06/12 16:42:48;;;;;;;;;;;;;;;27.01;36.40;97103.28;4218180;28;5906;-66
2022/06/12 16:44:50;;;;;;;;;;;;;;;26.98;36.67;97096.53;4219647;28;5780;-66
2022/06/12 16:46:57;;;;;;;;;;;;;;;26.95;36.55;97097.09;4224379;28;5778;-66
2022/06/12 16:49:00;;;;;;;;;;;;;;;26.93;36.91;97095.78;4220663;28;5705;-66
2022/06/12 16:51:11;;;;;;;;;;;;;;;26.93;36.96;97098.47;4219477;28;5675;-66
2022/06/12 16:53:14;;;;;;;;;;;;;;;26.93;37.14;97087.63;4211897;28;5701;-66
2022/06/12 16:55:18;;;;;;;;;;;;;;;26.92;37.06;97086.84;4221549;28;5637;-67
2022/06/12 16:57:24;;;;;;;;;;;;;;;26.91;36.99;97092.56;4221904;28;5765;-66
2022/06/12 16:59:27;;;;;;;;;;;;;;;26.89;37.51;97090.13;4220658;27;5692;-65
2022/06/12 17:01:32;;;;;;;;;;;;;;;26.96;37.37;97087.88;4213473;27;5877;-64
2022/06/12 17:03:36;;;;;;;;;;;;;;;26.97;37.38;97094.13;4218686;28;6375;-64
2022/06/12 17:05:39;;;;;;;;;;;;;;;26.95;37.45;97096.28;4216326;27;5671;-67
2022/06/12 17:07:44;;;;;;;;;;;;;;;26.92;37.67;97088.75;4211096;28;6063;-66
2022/06/12 17:09:54;;;;;;;;;;;;;;;26.91;37.54;97087.13;4214173;28;5671;-68
2022/06/12 17:11:56;;;;;;;;;;;;;;;26.92;37.68;97088.75;4209939;28;5844;-63
2022/06/12 17:14:01;;;;;;;;;;;;;;;26.93;37.81;97084.91;4211023;28;5688;-66
2022/06/12 17:16:04;;;;;;;;;;;;;;;26.92;37.79;97092.25;4204239;28;6381;-67
2022/06/12 17:20:44;;;;;;;;;;;;;;;26.88;37.76;97091.22;4213113;28;5713;-67
2022/06/12 17:22:47;;;;;;;;;;;;;;;26.87;37.78;97089.63;4201001;28;5843;-64
2022/06/12 17:24:51;;;;;;;;;;;;;;;26.89;37.63;97097.47;4207566;28;5663;-65
2022/06/12 17:26:54;;;;;;;;;;;;;;;26.95;37.60;97099.81;4215610;28;5676;-63
2022/06/12 17:28:58;;;;;;;;;;;;;;;27.01;37.28;97100.56;4220548;28;5663;-64
2022/06/12 17:31:02;;;;;;;;;;;;;;;27.05;37.46;97104.31;4216225;28;5671;-63
2022/06/12 17:33:06;;;;;;;;;;;;;;;27.05;37.27;97100.81;4211126;28;5700;-66
2022/06/12 17:35:11;;;;;;;;;;;;;;;27.02;37.62;97102.19;4215119;28;5688;-65
2022/06/12 17:37:14;;;;;;;;;;;;;;;26.97;37.25;97097.63;4201584;28;5716;-66
2022/06/12 17:39:17;;;;;;;;;;;;;;;26.95;36.96;97101.72;4210211;28;5099;-73
2022/06/12 17:41:20;;;;;;;;;;;;;;;26.92;36.91;97100.41;4220349;28;5667;-72
2022/06/12 17:43:23;;;;;;;;;;;;;;;26.91;36.70;97097.97;4213003;28;5742;-65
2022/06/12 17:45:27;;;;;;;;;;;;;;;26.89;36.46;97108.31;4215983;28;5660;-68
2022/06/12 17:47:32;;;;;;;;;;;;;;;26.90;36.49;97104.50;4217274;27;5671;-64
2022/06/12 17:49:35;;;;;;;;;;;;;;;26.94;36.30;97100.09;4217836;28;5733;-65
2022/06/12 17:51:39;;;;;;;;;;;;;;;26.92;35.86;97105.00;4213785;28;5715;-64
2022/06/12 17:53:43;;;;;;;;;;;;;;;26.89;35.76;97114.53;4211608;28;5660;-65
2022/06/12 17:55:47;;;;;;;;;;;;;;;26.87;35.58;97110.50;4204806;28;5688;-62
2022/06/12 17:57:50;;;;;;;;;;;;;;;26.86;35.77;97114.31;4210070;28;5659;-62